createdAt,value
2023-02-14T00:00:29.781Z,1.45
2023-02-14T00:03:29.772Z,1.36
2023-02-14T00:06:29.834Z,1.31
2023-02-14T00:09:32.744Z,1.32
2023-02-14T00:12:32.750Z,1.43
2023-02-14T00:15:32.724Z,1.39
2023-02-14T00:18:54.749Z,1.32
2023-02-14T00:21:54.728Z,1.40
2023-02-14T00:24:54.799Z,1.38
2023-02-14T00:27:54.773Z,1.38
2023-02-14T00:30:47.805Z,1.38
2023-02-14T00:33:47.792Z,1.40
2023-02-14T00:36:47.778Z,1.41
2023-02-14T00:39:47.780Z,1.32
2023-02-14T00:42:47.727Z,1.15
2023-02-14T00:45:48.796Z,1.48
2023-02-14T00:48:48.774Z,1.46
2023-02-14T00:51:48.752Z,1.45
2023-02-14T00:54:48.775Z,1.24
2023-02-14T00:57:48.754Z,1.41
2023-02-14T01:00:48.774Z,1.39
2023-02-14T01:03:48.756Z,1.32
2023-02-14T01:06:48.774Z,1.42
2023-02-14T01:09:48.739Z,1.44
2023-02-14T01:12:48.775Z,1.46
2023-02-14T01:15:52.746Z,1.45
2023-02-14T01:18:54.770Z,1.45
2023-02-14T01:21:54.774Z,1.44
2023-02-14T01:24:54.776Z,1.43
2023-02-14T01:27:55.728Z,1.44
2023-02-14T01:30:55.847Z,1.42
2023-02-14T01:33:56.784Z,1.44
2023-02-14T01:36:56.744Z,1.31
2023-02-14T01:39:56.755Z,1.45
2023-02-14T01:42:56.748Z,1.45
2023-02-14T01:45:56.826Z,1.24
2023-02-14T01:48:56.744Z,1.45
2023-02-14T01:52:00.138Z,1.33
2023-02-14T01:55:05.793Z,1.27
2023-02-14T01:58:29.766Z,1.45
2023-02-14T02:01:30.850Z,1.45
2023-02-14T02:04:33.797Z,1.45
2023-02-14T02:07:36.789Z,1.25
2023-02-14T02:10:36.735Z,1.44
2023-02-14T02:13:36.782Z,1.42
2023-02-14T02:17:04.793Z,1.40
2023-02-14T02:20:17.767Z,1.22
2023-02-14T02:23:14.745Z,1.40
2023-02-14T02:26:38.717Z,1.38
2023-02-14T02:30:09.807Z,1.37
2023-02-14T02:33:18.706Z,1.28
2023-02-14T02:36:31.735Z,1.36
2023-02-14T02:39:50.791Z,1.35
2023-02-14T02:43:07.729Z,1.35
2023-02-14T02:46:36.760Z,1.35
2023-02-14T02:50:16.746Z,1.33
2023-02-14T02:53:33.749Z,1.36
2023-02-14T02:56:52.778Z,1.33
2023-02-14T02:59:55.785Z,1.16
2023-02-14T03:03:16.728Z,1.36
2023-02-14T03:06:16.767Z,1.29
2023-02-14T03:09:24.740Z,1.35
2023-02-14T03:12:47.759Z,1.31
2023-02-14T03:16:04.857Z,1.30
2023-02-14T03:19:23.736Z,1.31
2023-02-14T03:22:41.748Z,1.28
2023-02-14T03:25:41.788Z,1.20
2023-02-14T03:28:52.752Z,1.28
2023-02-14T03:32:04.851Z,1.27
2023-02-14T03:35:12.772Z,1.26
2023-02-14T03:38:27.722Z,1.24
2023-02-14T03:41:31.761Z,1.24
2023-02-14T03:44:34.756Z,1.27
2023-02-14T03:47:36.734Z,1.27
2023-02-14T03:50:36.729Z,1.32
2023-02-14T03:53:40.730Z,1.34
2023-02-14T03:56:44.719Z,1.35
2023-02-14T03:59:44.802Z,1.38
2023-02-14T04:02:50.728Z,1.39
2023-02-14T04:05:52.758Z,1.37
2023-02-14T04:08:52.733Z,1.31
2023-02-14T04:11:52.783Z,1.40
2023-02-14T04:14:52.747Z,1.39
2023-02-14T04:18:11.787Z,1.37
2023-02-14T04:21:11.749Z,1.30
2023-02-14T04:24:11.730Z,1.44
2023-02-14T04:27:17.730Z,1.44
2023-02-14T04:30:18.774Z,1.45
2023-02-14T04:33:18.771Z,1.46
2023-02-14T04:36:18.722Z,1.46
2023-02-14T04:39:18.776Z,1.45
2023-02-14T04:42:18.724Z,1.36
2023-02-14T04:45:18.762Z,1.48
2023-02-14T04:48:18.732Z,1.51
2023-02-14T04:51:18.718Z,1.50
2023-02-14T04:54:18.761Z,1.35
2023-02-14T04:57:18.774Z,1.49
2023-02-14T05:00:19.770Z,1.46
2023-02-14T05:03:12.779Z,1.44
2023-02-14T05:05:58.724Z,1.59
2023-02-14T05:08:58.717Z,1.60
2023-02-14T05:11:58.731Z,1.51
2023-02-14T05:14:58.730Z,1.53
2023-02-14T05:17:58.712Z,1.60
2023-02-14T05:20:58.922Z,1.61
2023-02-14T05:23:58.759Z,1.61
2023-02-14T05:26:58.729Z,1.61
2023-02-14T05:29:58.810Z,1.45
2023-02-14T05:32:58.737Z,1.47
2023-02-14T05:35:58.746Z,1.57
2023-02-14T05:38:58.727Z,1.60
2023-02-14T05:41:59.475Z,1.59
2023-02-14T05:44:59.758Z,1.59
2023-02-14T05:48:00.872Z,1.58
2023-02-14T05:51:01.073Z,1.46
2023-02-14T05:54:00.758Z,1.55
2023-02-14T05:57:00.779Z,1.54
2023-02-14T06:00:00.770Z,1.53
2023-02-14T06:03:04.747Z,1.53
2023-02-14T06:06:04.781Z,1.43
2023-02-14T06:09:04.810Z,1.50
2023-02-14T06:12:08.293Z,1.52
2023-02-14T06:15:08.744Z,1.52
2023-02-14T06:18:09.789Z,1.55
2023-02-14T06:21:12.112Z,1.56
2023-02-14T06:24:13.778Z,1.39
2023-02-14T06:27:15.757Z,1.08
2023-02-14T06:30:15.778Z,1.41
2023-02-14T06:33:15.716Z,1.44
2023-02-14T06:36:15.914Z,1.44
2023-02-14T06:39:18.803Z,1.54
2023-02-14T06:42:19.811Z,1.58
2023-02-14T06:45:20.740Z,1.77
2023-02-14T06:48:20.754Z,1.82
2023-02-14T06:51:21.855Z,1.58
2023-02-14T06:54:23.862Z,1.87
2023-02-14T06:57:26.784Z,1.85
2023-02-14T07:00:26.711Z,1.81
2023-02-14T07:03:26.968Z,1.86
2023-02-14T07:06:29.074Z,1.80
2023-02-14T07:09:32.710Z,1.82
2023-02-14T07:12:32.896Z,1.86
2023-02-14T07:15:32.901Z,1.90
2023-02-14T07:18:33.786Z,1.83
2023-02-14T07:21:36.407Z,1.72
2023-02-14T07:24:39.815Z,1.10
2023-02-14T07:27:45.758Z,2.05
2023-02-14T07:30:49.956Z,1.78
2023-02-14T07:33:44.025Z,1.85
2023-02-14T07:36:31.823Z,2.09
2023-02-14T07:39:18.841Z,2.05
2023-02-14T07:42:04.723Z,2.13
2023-02-14T07:45:20.770Z,2.14
2023-02-14T07:48:20.824Z,2.10
2023-02-14T07:51:21.030Z,2.15
2023-02-14T07:54:21.288Z,2.32
2023-02-14T07:57:24.802Z,2.26
2023-02-14T08:00:24.781Z,2.42
2023-02-14T08:03:25.742Z,2.63
2023-02-14T08:06:25.773Z,2.72
2023-02-14T08:09:30.766Z,2.76
2023-02-14T08:12:49.846Z,2.41
2023-02-14T08:16:07.882Z,2.58
2023-02-14T08:19:07.765Z,2.48
2023-02-14T08:22:07.761Z,2.84
2023-02-14T08:25:07.738Z,2.60
2023-02-14T08:28:07.757Z,2.74
2023-02-14T08:31:53.261Z,2.98
2023-02-14T08:34:57.851Z,2.95
2023-02-14T08:37:57.739Z,3.03
2023-02-14T08:40:59.933Z,3.07
2023-02-14T08:43:59.723Z,3.04
2023-02-14T08:47:03.890Z,3.02
2023-02-14T08:50:03.757Z,3.07
2023-02-14T08:53:03.752Z,3.13
2023-02-14T08:56:03.775Z,3.45
2023-02-14T08:59:13.785Z,3.45
2023-02-14T09:02:17.867Z,3.63
2023-02-14T09:04:57.845Z,3.70
2023-02-14T09:07:44.090Z,3.82
2023-02-14T09:10:25.908Z,3.79
2023-02-14T09:13:11.748Z,3.75
2023-02-14T09:16:00.800Z,3.67
2023-02-14T09:19:06.784Z,3.81
2023-02-14T09:22:06.773Z,3.81
2023-02-14T09:25:06.778Z,4.08
2023-02-14T09:28:06.708Z,4.06
2023-02-14T09:31:06.875Z,4.13
2023-02-14T09:34:06.736Z,4.06
2023-02-14T09:37:11.613Z,4.38
2023-02-14T09:40:12.809Z,4.36
2023-02-14T09:43:57.781Z,4.47
2023-02-14T09:47:02.731Z,4.58
2023-02-14T09:50:04.368Z,4.60
2023-02-14T09:53:26.756Z,4.53
2023-02-14T09:56:51.865Z,4.65
2023-02-14T10:00:07.760Z,4.91
2023-02-14T10:03:32.332Z,5.00
2023-02-14T10:06:54.888Z,5.29
2023-02-14T10:10:33.309Z,5.39
2023-02-14T10:13:43.235Z,5.51
2023-02-14T10:16:47.804Z,5.57
2023-02-14T10:19:56.719Z,5.69
2023-02-14T10:22:59.707Z,5.89
2023-02-14T10:26:07.750Z,5.96
2023-02-14T10:29:08.727Z,6.00
2023-02-14T10:32:12.811Z,6.31
2023-02-14T10:35:15.099Z,6.65
2023-02-14T10:38:44.792Z,6.97
2023-02-14T10:42:17.790Z,7.15
2023-02-14T10:45:54.832Z,7.01
2023-02-14T10:49:06.821Z,6.84
2023-02-14T10:52:10.763Z,7.25
2023-02-14T10:55:20.254Z,7.63
2023-02-14T10:58:36.055Z,7.57
2023-02-14T11:01:35.790Z,8.30
2023-02-14T11:04:37.776Z,9.42
2023-02-14T11:07:37.730Z,10.62
2023-02-14T11:10:46.846Z,11.00
2023-02-14T11:13:49.854Z,10.85
2023-02-14T11:16:50.914Z,10.90
2023-02-14T11:19:53.947Z,11.57
2023-02-14T11:22:54.854Z,10.74
2023-02-14T11:25:54.738Z,10.66
2023-02-14T11:29:23.931Z,10.22
2023-02-14T11:32:34.769Z,10.28
2023-02-14T11:35:40.740Z,10.12
2023-02-14T11:38:43.745Z,11.27
2023-02-14T11:42:02.841Z,12.49
2023-02-14T11:45:13.782Z,11.59
2023-02-14T11:48:38.130Z,12.14
2023-02-14T11:51:49.728Z,13.40
2023-02-14T11:54:55.769Z,12.80
2023-02-14T11:58:01.227Z,13.72
2023-02-14T12:01:07.740Z,13.69
2023-02-14T12:04:09.871Z,14.17
2023-02-14T12:07:09.762Z,14.34
2023-02-14T12:10:26.879Z,13.91
2023-02-14T12:13:27.744Z,13.89
2023-02-14T12:16:35.786Z,13.63
2023-02-14T12:19:52.203Z,13.45
2023-02-14T12:22:57.744Z,13.44
2023-02-14T12:26:09.750Z,14.23
2023-02-14T12:29:16.749Z,13.47
2023-02-14T12:32:37.783Z,13.08
2023-02-14T12:35:43.866Z,13.37
2023-02-14T12:39:13.792Z,12.65
2023-02-14T12:42:46.808Z,12.59
2023-02-14T12:49:39.461Z,11.32
2023-02-14T12:52:39.031Z,10.35
2023-02-14T12:56:24.752Z,10.61
2023-02-14T13:00:05.766Z,10.31
2023-02-14T13:03:36.758Z,10.99
2023-02-14T13:06:50.725Z,11.76
2023-02-14T13:10:00.736Z,11.79
2023-02-14T13:13:35.770Z,11.26
2023-02-14T13:17:08.770Z,10.73
2023-02-14T13:20:20.756Z,9.93
2023-02-14T13:23:42.726Z,9.96
2023-02-14T13:26:45.775Z,9.83
2023-02-14T13:29:56.716Z,9.75
2023-02-14T13:32:58.733Z,9.59
2023-02-14T13:35:58.887Z,9.36
2023-02-14T13:39:04.729Z,9.60
2023-02-14T13:42:04.722Z,9.72
2023-02-14T13:45:04.733Z,9.97
2023-02-14T13:48:18.757Z,10.20
2023-02-14T13:51:20.743Z,10.33
2023-02-14T13:54:34.725Z,10.49
2023-02-14T13:57:47.716Z,10.26
2023-02-14T14:00:52.783Z,9.83
2023-02-14T14:03:52.746Z,9.45
2023-02-14T14:07:16.703Z,9.05
2023-02-14T14:10:18.726Z,8.93
2023-02-14T14:13:20.727Z,8.65
2023-02-14T14:16:38.780Z,8.45
2023-02-14T14:19:38.753Z,8.13
2023-02-14T14:22:42.726Z,8.06
2023-02-14T14:25:49.731Z,7.93
2023-02-14T14:28:49.715Z,7.63
2023-02-14T14:31:49.811Z,7.53
2023-02-14T14:34:42.817Z,7.42
2023-02-14T14:37:48.762Z,7.38
2023-02-14T14:40:50.741Z,7.08
2023-02-14T14:43:52.760Z,6.97
2023-02-14T14:46:54.031Z,7.06
2023-02-14T14:49:46.749Z,6.90
2023-02-14T14:52:55.728Z,6.65
2023-02-14T14:56:02.086Z,6.63
2023-02-14T14:59:02.761Z,6.50
2023-02-14T15:02:02.720Z,6.39
2023-02-14T15:05:02.747Z,6.11
2023-02-14T15:08:02.728Z,6.19
2023-02-14T15:11:12.726Z,5.90
2023-02-14T15:14:12.740Z,5.96
2023-02-14T15:17:17.719Z,5.85
2023-02-14T15:20:22.768Z,5.83
2023-02-14T15:23:30.737Z,5.66
2023-02-14T15:26:41.710Z,5.50
2023-02-14T15:29:44.784Z,5.51
2023-02-14T15:32:46.767Z,5.37
2023-02-14T15:35:48.737Z,5.22
2023-02-14T15:38:53.729Z,5.12
2023-02-14T15:41:59.748Z,5.01
2023-02-14T15:44:59.757Z,4.93
2023-02-14T15:48:00.777Z,4.89
2023-02-14T15:51:04.777Z,4.87
2023-02-14T15:54:07.754Z,4.79
2023-02-14T15:57:07.785Z,4.74
2023-02-14T16:00:07.760Z,4.77
2023-02-14T16:03:15.733Z,4.77
2023-02-14T16:06:15.709Z,4.77
2023-02-14T16:09:15.711Z,4.90
2023-02-14T16:12:47.716Z,4.92
2023-02-14T16:15:49.792Z,5.05
2023-02-14T16:18:59.701Z,5.08
2023-02-14T16:22:09.763Z,5.12
2023-02-14T16:25:10.032Z,5.11
2023-02-14T16:28:09.723Z,5.09
2023-02-14T16:31:11.811Z,4.91
2023-02-14T16:34:11.763Z,5.01
2023-02-14T16:37:11.736Z,4.94
2023-02-14T16:40:14.259Z,4.75
2023-02-14T16:43:13.719Z,4.79
2023-02-14T16:46:13.784Z,4.65
2023-02-14T16:49:13.730Z,4.66
2023-02-14T16:52:13.742Z,4.57
2023-02-14T16:55:13.732Z,4.46
2023-02-14T16:58:13.695Z,4.37
2023-02-14T17:01:13.749Z,4.04
2023-02-14T17:04:13.704Z,3.94
2023-02-14T17:07:14.740Z,3.97
2023-02-14T17:10:18.747Z,3.78
2023-02-14T17:13:18.725Z,3.71
2023-02-14T17:16:21.779Z,3.58
2023-02-14T17:19:21.765Z,3.47
2023-02-14T17:22:21.736Z,3.28
2023-02-14T17:25:21.738Z,3.10
2023-02-14T17:28:21.748Z,3.03
2023-02-14T17:31:21.795Z,2.90
2023-02-14T17:34:21.781Z,2.86
2023-02-14T17:37:21.707Z,2.76
2023-02-14T17:40:15.772Z,2.57
2023-02-14T17:43:01.733Z,2.63
2023-02-14T17:46:02.718Z,2.41
2023-02-14T17:49:02.724Z,2.42
2023-02-14T17:52:02.726Z,2.30
2023-02-14T17:55:02.721Z,2.25
2023-02-14T17:58:02.840Z,2.27
2023-02-14T18:01:02.741Z,2.21
2023-02-14T18:04:02.750Z,2.11
2023-02-14T18:07:02.742Z,1.87
2023-02-14T18:10:02.743Z,1.98
2023-02-14T18:13:02.766Z,1.97
2023-02-14T18:16:03.034Z,1.94
2023-02-14T18:19:02.826Z,1.87
2023-02-14T18:22:02.784Z,2.00
2023-02-14T18:25:04.725Z,2.10
2023-02-14T18:28:04.771Z,1.96
2023-02-14T18:31:04.798Z,1.99
2023-02-14T18:34:04.762Z,1.88
2023-02-14T18:37:06.764Z,1.79
2023-02-14T18:40:06.711Z,1.67
2023-02-14T18:43:06.697Z,1.57
2023-02-14T18:46:06.908Z,1.51
2023-02-14T18:49:06.707Z,1.53
2023-02-14T18:52:06.723Z,1.73
2023-02-14T18:55:06.700Z,1.65
2023-02-14T18:58:07.852Z,1.62
2023-02-14T19:01:07.766Z,1.60
2023-02-14T19:04:07.745Z,1.63
2023-02-14T19:07:07.710Z,1.54
2023-02-14T19:10:07.760Z,1.53
2023-02-14T19:13:07.714Z,1.43
2023-02-14T19:16:11.758Z,1.45
2023-02-14T19:19:11.767Z,1.49
2023-02-14T19:22:12.732Z,1.49
2023-02-14T19:25:12.757Z,1.48
2023-02-14T19:28:13.734Z,1.49
2023-02-14T19:31:13.882Z,1.40
2023-02-14T19:34:13.734Z,1.52
2023-02-14T19:37:14.727Z,1.73
2023-02-14T19:40:16.709Z,1.94
2023-02-14T19:43:16.721Z,1.82
2023-02-14T19:46:17.727Z,2.28
2023-02-14T19:49:17.714Z,2.09
2023-02-14T19:52:26.424Z,2.21
2023-02-14T19:55:34.773Z,2.34
2023-02-14T19:58:34.749Z,2.29
2023-02-14T20:01:46.771Z,2.61
2023-02-14T20:04:46.745Z,2.67
2023-02-14T20:07:46.738Z,2.81
2023-02-14T20:10:46.740Z,3.17
2023-02-14T20:13:46.689Z,3.27
2023-02-14T20:16:47.843Z,3.30
2023-02-14T20:19:48.707Z,3.28
2023-02-14T20:22:48.729Z,3.30
2023-02-14T20:25:46.738Z,3.34
2023-02-14T20:28:32.746Z,3.39
2023-02-14T20:31:32.860Z,3.25
2023-02-14T20:34:32.751Z,3.33
2023-02-14T20:37:32.735Z,3.36
2023-02-14T20:40:32.709Z,3.38
2023-02-14T20:43:32.740Z,3.38
2023-02-14T20:46:33.720Z,3.28
2023-02-14T20:49:35.758Z,3.41
2023-02-14T20:52:35.703Z,3.41
2023-02-14T20:55:37.996Z,3.61
2023-02-14T20:58:37.692Z,3.54
2023-02-14T21:01:38.761Z,3.51
2023-02-14T21:04:38.745Z,3.62
2023-02-14T21:07:38.705Z,3.52
2023-02-14T21:10:38.700Z,3.42
2023-02-14T21:13:38.760Z,3.49
2023-02-14T21:16:38.712Z,3.50
2023-02-14T21:19:38.694Z,3.48
2023-02-14T21:22:38.733Z,3.41
2023-02-14T21:25:38.691Z,3.36
2023-02-14T21:28:38.709Z,3.25
2023-02-14T21:31:38.781Z,3.29
2023-02-14T21:34:38.717Z,3.23
2023-02-14T21:37:38.715Z,3.28
2023-02-14T21:40:38.724Z,3.33
2023-02-14T21:43:38.690Z,3.31
2023-02-14T21:46:43.774Z,3.30
2023-02-14T21:50:02.717Z,3.22
2023-02-14T21:53:02.760Z,3.14
2023-02-14T21:56:02.692Z,3.15
2023-02-14T21:59:04.722Z,3.19
2023-02-14T22:02:05.722Z,3.03
2023-02-14T22:05:05.698Z,3.03
2023-02-14T22:08:05.710Z,3.06
2023-02-14T22:11:05.726Z,3.12
2023-02-14T22:14:05.711Z,3.08
2023-02-14T22:17:05.706Z,3.03
2023-02-14T22:20:05.754Z,3.01
2023-02-14T22:23:05.725Z,2.93
2023-02-14T22:26:05.735Z,2.90
2023-02-14T22:29:07.698Z,2.88
2023-02-14T22:32:07.796Z,2.87
2023-02-14T22:35:07.742Z,2.85
2023-02-14T22:38:08.749Z,2.76
2023-02-14T22:41:08.745Z,2.64
2023-02-14T22:44:08.696Z,2.61
2023-02-14T22:47:08.738Z,2.58
2023-02-14T22:50:08.695Z,2.44
2023-02-14T22:53:08.728Z,2.46
2023-02-14T22:56:08.713Z,2.37
2023-02-14T22:59:13.721Z,2.33
2023-02-14T23:02:13.729Z,2.37
2023-02-14T23:05:13.711Z,2.30
2023-02-14T23:08:14.722Z,2.26
2023-02-14T23:11:26.742Z,2.16
2023-02-14T23:14:45.744Z,2.25
2023-02-14T23:18:03.746Z,2.15
2023-02-14T23:21:23.715Z,2.31
2023-02-14T23:24:23.740Z,2.21
2023-02-14T23:27:23.721Z,2.19
2023-02-14T23:30:28.756Z,2.08
2023-02-14T23:33:28.699Z,2.11
2023-02-14T23:36:28.715Z,2.09
2023-02-14T23:39:28.723Z,2.05
2023-02-14T23:42:28.737Z,1.98
2023-02-14T23:45:43.758Z,1.79
2023-02-14T23:48:43.688Z,1.91
2023-02-14T23:51:43.709Z,1.82
2023-02-14T23:54:43.715Z,1.74
2023-02-14T23:57:43.708Z,1.82
